This is the latest recevied weather packets stored in our database for station/object SQ7ACP-3. If no packets are shown the sender has not sent any weather packets the latest 10 day(s).
| Time | Temp. | Humidity | Pressure | Rain* | Wind** | Luminosity | Snow |
|---|---|---|---|---|---|---|---|
| 1778113854 | 14.44° C | 89% | 1005.8 hPa | 0 mm | - | - | - |
| 1778113243 | 15° C | 87% | 1006 hPa | 0 mm | - | - | - |
| 1778112641 | 15° C | 86% | 1006 hPa | 0 mm | - | - | - |
| 1778112029 | 15° C | 83% | 1006 hPa | 0 mm | - | - | - |
| 1778111419 | 15° C | 83% | 1005.5 hPa | 0 mm | - | - | - |
| 1778110816 | 15.56° C | 82% | 1005.4 hPa | 0 mm | - | - | - |
| 1778110204 | 15.56° C | 81% | 1005.4 hPa | 0.25 mm | - | - | - |
| 1778109591 | 16.11° C | 78% | 1005.6 hPa | 0.25 mm | - | - | - |
| 1778108979 | 16.11° C | 77% | 1005.5 hPa | 0.25 mm | - | - | - |
| 1778108378 | 16.67° C | 74% | 1005.4 hPa | 0.25 mm | - | - | - |
| 1778107768 | 16.67° C | 70% | 1005.5 hPa | 0.25 mm | - | - | - |
| 1778107154 | 17.22° C | 69% | 1005.5 hPa | 0.25 mm | - | - | - |
| 1778106544 | 16.67° C | 68% | 1005.4 hPa | 0 mm | - | - | - |
| 1778105931 | 16.67° C | 71% | 1005.9 hPa | 0 mm | - | - | - |
| 1778105316 | 16.11° C | 75% | 1005.1 hPa | 0 mm | - | - | - |
| 1778104704 | 16.67° C | 73% | 1005 hPa | 0 mm | - | - | - |
| 1778104103 | 16.67° C | 71% | 1005 hPa | 0 mm | - | - | - |
| 1778103492 | 17.78° C | 64% | 1005.2 hPa | 0 mm | - | - | - |
| 1778102878 | 17.78° C | 62% | 1005.3 hPa | 0 mm | - | - | - |
| 1778102279 | 17.78° C | 62% | 1005 hPa | 0 mm | - | - | - |
| 1778101666 | 17.78° C | 62% | 1005.2 hPa | 0 mm | - | - | - |
| 1778101066 | 17.22° C | 62% | 1005.1 hPa | 0 mm | - | - | - |
| 1778100453 | 16.67° C | 66% | 1005.2 hPa | 0 mm | - | - | - |
| 1778099841 | 17.22° C | 67% | 1005.1 hPa | 0 mm | - | - | - |
| 1778099230 | 16.67° C | 68% | 1005.1 hPa | 0 mm | - | - | - |
* Rain latest hour (hover to see other rain measurements)
** Current wind speed in m/s (hover to see current wind gust speed)